Time;durP1;ratioP1;P1;durP2;ratioP2;P2;SDS_P1;SDS_P2;PMS_P1;PMS_P2;Temp;Humidity;BMP_temperature;BMP_pressure;BME280_temperature;BME280_humidity;BME280_pressure;Samples;Min_cycle;Max_cycle;Signal;HPM_P1;HPM_P2
2023/07/29 00:01:31;;;;;;;11.45;4.85;;;;;;;16.78;100.00;92489.78;5101286;28;20024;-81
2023/07/29 00:03:56;;;;;;;10.68;4.35;;;;;;;16.77;100.00;92485.56;5097578;28;20046;-80
2023/07/29 00:06:22;;;;;;;7.55;4.35;;;;;;;16.79;100.00;92493.97;5098859;28;20036;-80
2023/07/29 00:08:48;;;;;;;9.57;4.70;;;;;;;16.78;100.00;92495.06;5117030;28;20122;-80
2023/07/29 00:11:13;;;;;;;12.82;4.90;;;;;;;16.73;100.00;92487.34;5099022;28;20035;-80
2023/07/29 00:13:39;;;;;;;8.40;4.72;;;;;;;16.74;100.00;92488.88;5108944;28;20398;-80
2023/07/29 00:16:05;;;;;;;8.93;4.75;;;;;;;16.71;100.00;92480.84;5110422;28;20039;-80
2023/07/29 00:18:32;;;;;;;12.65;5.35;;;;;;;16.67;100.00;92477.28;5113614;28;20119;-80
2023/07/29 00:20:58;;;;;;;10.68;5.00;;;;;;;16.65;100.00;92478.38;5106578;28;20032;-79
2023/07/29 00:23:23;;;;;;;8.73;4.38;;;;;;;16.64;100.00;92482.13;5096880;28;20043;-80
2023/07/29 00:25:49;;;;;;;9.20;4.78;;;;;;;16.63;100.00;92474.50;5081109;28;20054;-80
2023/07/29 00:28:14;;;;;;;8.18;4.63;;;;;;;16.62;100.00;92475.59;5115344;28;20035;-81
2023/07/29 00:30:40;;;;;;;12.98;4.93;;;;;;;16.59;100.00;92473.59;5114095;28;20400;-80
2023/07/29 00:33:06;;;;;;;10.88;4.90;;;;;;;16.59;100.00;92473.59;5088327;28;20497;-80
2023/07/29 00:35:31;;;;;;;9.52;4.70;;;;;;;16.57;100.00;92473.16;5077712;28;20040;-80
2023/07/29 00:37:59;;;;;;;13.18;4.82;;;;;;;16.54;100.00;92471.94;5099215;28;20110;-80
2023/07/29 00:40:28;;;;;;;7.68;4.70;;;;;;;16.52;100.00;92468.06;5098001;28;20031;-81
2023/07/29 00:42:54;;;;;;;12.48;4.70;;;;;;;16.51;100.00;92459.38;5113504;28;20035;-80
2023/07/29 00:45:20;;;;;;;9.02;4.97;;;;;;;16.52;100.00;92457.50;5116282;28;20055;-81
2023/07/29 00:47:46;;;;;;;11.50;4.97;;;;;;;16.47;100.00;92452.41;5097867;28;20123;-80
2023/07/29 00:50:13;;;;;;;8.57;4.65;;;;;;;16.47;100.00;92450.53;5096463;28;20063;-80
2023/07/29 00:52:39;;;;;;;11.07;4.88;;;;;;;16.47;100.00;92455.06;5112319;28;20028;-80
2023/07/29 00:55:06;;;;;;;8.88;4.50;;;;;;;16.49;100.00;92453.63;5103642;28;20046;-81
2023/07/29 00:57:33;;;;;;;9.85;4.80;;;;;;;16.50;100.00;92457.03;5096904;28;20045;-80
2023/07/29 00:59:59;;;;;;;8.45;4.80;;;;;;;16.52;100.00;92452.22;5115177;28;20114;-81
2023/07/29 01:02:26;;;;;;;8.07;4.80;;;;;;;16.49;100.00;92452.88;5115525;28;20553;-79
2023/07/29 01:04:59;;;;;;;13.10;4.88;;;;;;;16.49;100.00;92451.00;5099960;28;20031;-80
2023/07/29 01:07:47;;;;;;;11.00;4.95;;;;;;;16.49;100.00;92458.91;5077184;28;20155;-80
2023/07/29 01:10:37;;;;;;;14.57;5.40;;;;;;;16.49;100.00;92456.28;5106873;28;20031;-81
2023/07/29 01:13:08;;;;;;;8.88;4.90;;;;;;;16.45;100.00;92456.13;5112419;28;20031;-81
2023/07/29 01:15:49;;;;;;;11.70;5.82;;;;;;;16.44;100.00;92464.41;5095623;28;20039;-81
2023/07/29 01:18:22;;;;;;;12.95;4.93;;;;;;;16.43;100.00;92460.19;5077776;28;20054;-80
2023/07/29 01:20:48;;;;;;;15.00;5.00;;;;;;;16.40;100.00;92445.00;5061876;28;20039;-80
2023/07/29 01:23:15;;;;;;;10.85;5.40;;;;;;;16.42;100.00;92459.44;5077189;28;20028;-81
2023/07/29 01:25:41;;;;;;;11.07;5.05;;;;;;;16.46;100.00;92464.84;5111167;28;20850;-80
2023/07/29 01:28:07;;;;;;;8.93;5.03;;;;;;;16.51;100.00;92467.28;5114276;28;20040;-80
2023/07/29 01:30:40;;;;;;;9.40;5.13;;;;;;;16.57;100.00;92467.84;5096695;28;20037;-80
2023/07/29 01:33:14;;;;;;;12.25;5.65;;;;;;;16.59;100.00;92463.03;5109517;28;20024;-80
2023/07/29 01:35:48;;;;;;;10.18;5.20;;;;;;;16.63;100.00;92458.66;5113710;28;20038;-80
2023/07/29 01:38:18;;;;;;;10.85;5.55;;;;;;;16.65;100.00;92475.72;5085620;28;20039;-80
2023/07/29 01:40:44;;;;;;;10.02;5.30;;;;;;;16.63;100.00;92469.97;5075529;28;20032;-81
2023/07/29 01:43:11;;;;;;;13.15;5.03;;;;;;;16.62;100.00;92455.25;5108830;28;20035;-81
2023/07/29 01:45:38;;;;;;;11.55;5.70;;;;;;;16.62;100.00;92449.19;5094683;28;20052;-80
2023/07/29 01:48:07;;;;;;;9.57;5.03;;;;;;;16.62;100.00;92457.13;5066374;28;20035;-80
2023/07/29 01:50:34;;;;;;;11.00;5.13;;;;;;;16.61;100.00;92455.56;5089070;28;20386;-80
2023/07/29 01:53:00;;;;;;;13.82;5.60;;;;;;;16.60;100.00;92454.03;5101772;28;20484;-81
2023/07/29 01:55:26;;;;;;;12.65;5.70;;;;;;;16.57;100.00;92460.72;5108277;28;20062;-81
2023/07/29 01:57:52;;;;;;;10.45;5.25;;;;;;;16.54;100.00;92466.63;5108865;28;20050;-80
2023/07/29 02:00:19;;;;;;;13.38;5.50;;;;;;;16.54;100.00;92471.16;5079325;28;20039;-81
2023/07/29 02:02:45;;;;;;;11.88;5.07;;;;;;;16.52;100.00;92466.19;5078310;28;20059;-80
2023/07/29 02:05:11;;;;;;;11.38;5.40;;;;;;;16.54;100.00;92455.31;5096787;28;20527;-81
2023/07/29 02:07:36;;;;;;;8.70;5.15;;;;;;;16.54;100.00;92455.31;5114520;28;20023;-80
2023/07/29 02:10:02;;;;;;;14.27;5.60;;;;;;;16.54;100.00;92453.44;5077685;28;20397;-80
2023/07/29 02:12:28;;;;;;;9.77;5.13;;;;;;;16.55;100.00;92462.13;5076580;28;20532;-80
2023/07/29 02:14:53;;;;;;;8.77;5.30;;;;;;;16.53;100.00;92461.69;5110034;28;20040;-80
2023/07/29 02:17:19;;;;;;;10.00;5.07;;;;;;;16.56;100.00;92458.41;5114575;28;20051;-79
2023/07/29 02:19:45;;;;;;;14.85;5.57;;;;;;;16.58;100.00;92448.28;5080372;28;20498;-81
2023/07/29 02:22:14;;;;;;;9.70;5.88;;;;;;;16.58;100.00;92446.41;5076542;28;20409;-80
2023/07/29 02:24:40;;;;;;;8.60;5.20;;;;;;;16.58;100.00;92450.94;5083260;28;20078;-80
2023/07/29 02:27:06;;;;;;;10.90;5.18;;;;;;;16.54;100.00;92453.44;5060347;28;20060;-80
2023/07/29 02:29:32;;;;;;;11.68;5.78;;;;;;;16.54;100.00;92455.31;5093613;28;20393;-80
2023/07/29 02:31:59;;;;;;;10.93;5.15;;;;;;;16.53;100.00;92457.19;5093791;28;20028;-79
2023/07/29 02:34:25;;;;;;;8.77;4.82;;;;;;;16.56;100.00;92445.19;5076369;28;20036;-78
2023/07/29 02:36:51;;;;;;;9.55;5.40;;;;;;;16.55;100.00;92440.97;5076870;28;20054;-81
2023/07/29 02:39:17;;;;;;;10.30;5.40;;;;;;;16.59;100.00;92445.28;5077176;28;20317;-80
2023/07/29 02:41:42;;;;;;;10.75;4.80;;;;;;;16.57;100.00;92441.44;5088027;28;20043;-80
2023/07/29 02:44:08;;;;;;;9.25;5.20;;;;;;;16.55;100.00;92441.78;5113707;28;20052;-80
2023/07/29 02:46:34;;;;;;;12.65;5.18;;;;;;;16.52;100.00;92437.13;5104655;28;20545;-81
2023/07/29 02:48:59;;;;;;;11.77;5.35;;;;;;;16.50;100.00;92449.13;5080109;28;20396;-81
2023/07/29 02:51:25;;;;;;;9.77;4.63;;;;;;;16.49;100.00;92440.41;5103505;28;20028;-81
2023/07/29 02:53:50;;;;;;;11.57;5.57;;;;;;;16.50;100.00;92434.03;5092390;28;20047;-81
2023/07/29 02:56:16;;;;;;;11.00;5.30;;;;;;;16.46;100.00;92430.50;5099108;28;20391;-80
2023/07/29 02:58:42;;;;;;;10.93;5.72;;;;;;;16.48;100.00;92438.84;5112061;28;20028;-80
2023/07/29 03:01:08;;;;;;;10.63;4.88;;;;;;;16.46;100.00;92433.16;5099749;28;20107;-80
2023/07/29 03:03:33;;;;;;;11.77;6.03;;;;;;;16.49;100.00;92429.84;5112978;28;20036;-80
2023/07/29 03:06:04;;;;;;;11.50;5.55;;;;;;;16.48;100.00;92432.81;5082418;28;20107;-80
2023/07/29 03:08:30;;;;;;;10.38;5.25;;;;;;;16.48;100.00;92435.44;5086953;28;20036;-81
2023/07/29 03:10:57;;;;;;;8.15;4.97;;;;;;;16.44;100.00;92445.91;5097531;28;20046;-81
2023/07/29 03:13:22;;;;;;;10.82;5.60;;;;;;;16.40;100.00;92451.06;5079101;28;20039;-79
2023/07/29 03:15:48;;;;;;;11.65;5.47;;;;;;;16.34;100.00;92454.97;5106938;28;20040;-79
2023/07/29 03:18:15;;;;;;;9.35;5.45;;;;;;;16.32;100.00;92446.59;5109769;28;20503;-81
2023/07/29 03:20:41;;;;;;;10.90;5.07;;;;;;;16.37;100.00;92446.44;5099220;28;20031;-79
2023/07/29 03:23:06;;;;;;;9.15;4.78;;;;;;;16.32;100.00;92443.94;5099576;28;20046;-80
2023/07/29 03:25:32;;;;;;;8.02;4.90;;;;;;;16.32;100.00;92454.53;5078158;28;20036;-80
2023/07/29 03:27:58;;;;;;;9.45;5.32;;;;;;;16.30;100.00;92461.22;5100445;28;20019;-81
2023/07/29 03:30:23;;;;;;;8.60;5.07;;;;;;;16.30;100.00;92456.75;5113634;28;20119;-80
2023/07/29 03:32:51;;;;;;;10.13;5.43;;;;;;;16.31;100.00;92466.19;5089404;28;20050;-79
2023/07/29 03:35:16;;;;;;;10.40;4.72;;;;;;;16.32;100.00;92467.72;5117370;28;20046;-80
2023/07/29 03:37:42;;;;;;;8.23;5.28;;;;;;;16.33;100.00;92464.00;5082966;28;20494;-82
2023/07/29 03:40:11;;;;;;;11.98;5.63;;;;;;;16.32;100.00;92466.97;5091516;28;20042;-79
2023/07/29 03:42:37;;;;;;;13.65;5.20;;;;;;;16.33;100.00;92468.53;5087251;28;20489;-80
2023/07/29 03:45:02;;;;;;;11.02;5.13;;;;;;;16.33;100.00;92466.66;5062542;28;20059;-80
2023/07/29 03:47:28;;;;;;;11.00;5.47;;;;;;;16.36;100.00;92471.28;5073856;28;20045;-79
2023/07/29 03:49:55;;;;;;;9.13;5.00;;;;;;;16.37;100.00;92472.03;5029438;28;20037;-80
2023/07/29 03:52:22;;;;;;;10.55;5.07;;;;;;;16.39;100.00;92467.22;5039074;28;20040;-79
2023/07/29 03:54:47;;;;;;;8.95;4.75;;;;;;;16.40;100.00;92472.19;5038449;28;20431;-80
2023/07/29 03:57:13;;;;;;;7.97;5.10;;;;;;;16.38;100.00;92458.53;5038534;28;20389;-80
2023/07/29 03:59:39;;;;;;;13.55;4.95;;;;;;;16.37;100.00;92457.00;5049249;28;20490;-80
2023/07/29 04:02:04;;;;;;;12.90;5.32;;;;;;;16.40;100.00;92468.78;5044198;28;20406;-79
2023/07/29 04:04:30;;;;;;;11.63;4.90;;;;;;;16.38;100.00;92466.44;5050951;28;20486;-80
2023/07/29 04:06:56;;;;;;;9.75;5.15;;;;;;;16.38;100.00;92466.44;5038114;28;20052;-80
2023/07/29 04:09:22;;;;;;;9.82;5.15;;;;;;;16.38;100.00;92474.38;5038145;28;20033;-80
2023/07/29 04:11:47;;;;;;;12.27;5.22;;;;;;;16.40;100.00;92460.84;5055385;28;20029;-79
2023/07/29 04:14:13;;;;;;;11.20;4.95;;;;;;;16.45;100.00;92464.06;5053804;28;20045;-80
2023/07/29 04:16:38;;;;;;;12.32;5.22;;;;;;;16.48;100.00;92465.28;5053614;28;20041;-80
2023/07/29 04:19:04;;;;;;;10.15;5.20;;;;;;;16.49;100.00;92458.16;5057875;28;20066;-81
2023/07/29 04:21:29;;;;;;;9.25;5.28;;;;;;;16.50;100.00;92451.75;5075958;28;20120;-81
2023/07/29 04:23:55;;;;;;;11.43;5.30;;;;;;;16.52;100.00;92465.41;5068938;28;20048;-80
2023/07/29 04:26:21;;;;;;;8.38;5.18;;;;;;;16.57;100.00;92460.72;5050458;28;20037;-80
2023/07/29 04:28:46;;;;;;;9.55;5.25;;;;;;;16.61;100.00;92461.59;5075520;28;20498;-80
2023/07/29 04:31:12;;;;;;;10.35;5.35;;;;;;;16.61;100.00;92466.13;5057952;28;20065;-82
2023/07/29 04:33:37;;;;;;;7.55;4.93;;;;;;;16.64;100.00;92462.84;5073643;28;20032;-81
2023/07/29 04:36:04;;;;;;;9.95;5.22;;;;;;;16.65;100.00;92461.75;5046173;28;20080;-82
2023/07/29 04:38:33;;;;;;;8.30;5.32;;;;;;;16.65;100.00;92462.50;5055206;28;20387;-82
2023/07/29 04:41:02;;;;;;;9.02;5.25;;;;;;;16.69;100.00;92473.22;5055836;28;20398;-81
2023/07/29 04:43:30;;;;;;;8.82;5.30;;;;;;;16.68;100.00;92476.94;5039750;28;20550;-81
2023/07/29 04:45:55;;;;;;;11.55;4.93;;;;;;;16.74;100.00;92491.50;5089567;28;20119;-80
2023/07/29 04:48:21;;;;;;;10.20;5.40;;;;;;;16.80;100.00;92479.69;5095417;28;20056;-81
2023/07/29 04:50:47;;;;;;;11.38;5.68;;;;;;;16.78;100.00;92481.84;5059986;28;20087;-81
2023/07/29 04:53:12;;;;;;;10.35;5.30;;;;;;;16.79;100.00;92482.59;5069972;28;20048;-79
2023/07/29 04:55:38;;;;;;;9.95;5.70;;;;;;;16.78;100.00;92492.41;5094758;28;20119;-80
2023/07/29 04:58:04;;;;;;;11.45;5.57;;;;;;;16.76;100.00;92493.84;5077531;28;20402;-81
2023/07/29 05:00:29;;;;;;;9.77;5.47;;;;;;;16.75;100.00;92490.44;5092525;28;20491;-81
2023/07/29 05:02:55;;;;;;;10.52;5.65;;;;;;;16.77;100.00;92501.44;5047863;28;20065;-82
2023/07/29 05:05:20;;;;;;;9.63;5.40;;;;;;;16.76;100.00;92505.19;5087582;28;20047;-81
2023/07/29 05:07:46;;;;;;;11.50;5.55;;;;;;;16.80;100.00;92515.91;5073855;28;20085;-81
2023/07/29 05:10:12;;;;;;;11.68;5.80;;;;;;;16.85;100.00;92505.16;5075484;28;20031;-81
2023/07/29 05:12:37;;;;;;;8.38;5.53;;;;;;;16.92;100.00;92504.63;5075553;28;20158;-81
2023/07/29 05:15:04;;;;;;;10.75;5.43;;;;;;;16.98;100.00;92505.97;5041758;28;20083;-81
2023/07/29 05:17:31;;;;;;;11.27;6.00;;;;;;;17.08;100.00;92505.56;5048192;28;20108;-80
2023/07/29 05:19:57;;;;;;;10.20;5.90;;;;;;;17.13;100.00;92505.34;5057560;28;20483;-81
2023/07/29 05:22:24;;;;;;;10.45;5.72;;;;;;;17.20;100.00;92505.63;5040269;28;20098;-81
2023/07/29 05:24:50;;;;;;;13.18;5.55;;;;;;;17.32;100.00;92499.56;5056881;28;20064;-81
2023/07/29 05:27:16;;;;;;;8.88;5.10;;;;;;;17.27;100.00;92503.19;5065901;28;20126;-80
2023/07/29 05:29:42;;;;;;;8.95;5.40;;;;;;;17.30;100.00;92496.47;5056550;28;20033;-81
2023/07/29 05:32:07;;;;;;;13.50;5.75;;;;;;;17.37;100.00;92488.00;5083963;28;20040;-81
2023/07/29 05:34:33;;;;;;;11.93;5.68;;;;;;;17.52;100.00;92497.16;5077223;28;20476;-81
2023/07/29 05:36:58;;;;;;;10.40;5.80;;;;;;;17.60;100.00;92499.72;5074916;28;20095;-81
2023/07/29 05:39:24;;;;;;;12.43;5.88;;;;;;;17.56;100.00;92495.41;5082166;28;20032;-82
2023/07/29 05:41:50;;;;;;;11.82;6.07;;;;;;;17.60;100.00;92497.06;5075509;28;20044;-80
2023/07/29 05:44:15;;;;;;;9.15;5.63;;;;;;;17.74;100.00;92509.22;5080401;28;20052;-81
2023/07/29 05:46:41;;;;;;;8.85;5.38;;;;;;;17.78;100.00;92507.47;5091954;28;20571;-81
2023/07/29 05:49:07;;;;;;;12.73;5.57;;;;;;;17.80;100.00;92502.63;5065692;28;20039;-82
2023/07/29 05:51:32;;;;;;;11.38;5.68;;;;;;;17.81;100.00;92514.75;5056216;28;20074;-81
2023/07/29 05:53:58;;;;;;;10.65;5.65;;;;;;;17.85;100.00;92520.97;5084375;28;20533;-79
2023/07/29 05:56:23;;;;;;;10.27;5.72;;;;;;;17.92;100.00;92526.47;5076179;28;20043;-79
2023/07/29 05:58:51;;;;;;;10.90;5.85;;;;;;;18.03;100.00;92529.47;5074556;28;20036;-80
2023/07/29 06:01:17;;;;;;;10.25;5.50;;;;;;;18.13;100.00;92525.63;5057403;28;20047;-80
2023/07/29 06:03:42;;;;;;;12.00;5.68;;;;;;;18.19;100.00;92535.63;5056642;28;20028;-81
2023/07/29 06:06:08;;;;;;;9.02;5.50;;;;;;;18.27;100.00;92541.94;5056179;28;20086;-80
2023/07/29 06:08:34;;;;;;;12.68;5.88;;;;;;;18.34;100.00;92530.78;5056146;28;20048;-81
2023/07/29 06:11:00;;;;;;;10.48;5.57;;;;;;;18.50;100.00;92529.75;5083416;28;20021;-80
2023/07/29 06:13:25;;;;;;;9.02;5.13;;;;;;;18.62;100.00;92531.66;5080213;28;20457;-80
2023/07/29 06:15:51;;;;;;;11.02;5.25;;;;;;;18.75;100.00;92535.03;5058174;28;20036;-80
2023/07/29 06:18:17;;;;;;;11.18;5.32;;;;;;;18.89;100.00;92535.47;5094165;28;20029;-80
2023/07/29 06:20:42;;;;;;;11.20;5.53;;;;;;;19.07;100.00;92535.19;5065395;28;20020;-80
2023/07/29 06:23:09;;;;;;;10.52;5.50;;;;;;;19.38;100.00;92525.78;5078369;28;20441;-80
2023/07/29 06:25:34;;;;;;;10.45;5.40;;;;;;;19.59;100.00;92536.94;5070580;28;20044;-81
2023/07/29 06:28:00;;;;;;;8.60;5.10;;;;;;;19.86;100.00;92537.25;5085947;28;20436;-80
2023/07/29 06:30:25;;;;;;;7.32;5.00;;;;;;;19.64;100.00;92542.00;5060272;28;20043;-79
2023/07/29 06:32:51;;;;;;;10.13;4.93;;;;;;;19.44;100.00;92535.81;5065546;28;20040;-81
2023/07/29 06:35:16;;;;;;;9.30;5.25;;;;;;;19.38;100.00;92544.34;5098544;28;20032;-80
2023/07/29 06:37:42;;;;;;;10.57;5.22;;;;;;;19.55;100.00;92538.75;5091200;28;20156;-80
2023/07/29 06:40:08;;;;;;;9.75;6.00;;;;;;;19.63;100.00;92542.34;5062472;28;20051;-80
2023/07/29 06:42:34;;;;;;;10.57;5.50;;;;;;;20.11;100.00;92537.88;5090430;28;20058;-80
2023/07/29 06:44:59;;;;;;;8.70;5.00;;;;;;;20.04;100.00;92541.13;5092633;28;20045;-83
2023/07/29 06:47:25;;;;;;;11.88;5.30;;;;;;;20.00;100.00;92542.91;5084986;28;20048;-86
2023/07/29 06:49:51;;;;;;;7.68;5.03;;;;;;;20.45;100.00;92547.00;5085021;28;20076;-85
2023/07/29 06:52:16;;;;;;;7.30;4.85;;;;;;;20.82;100.00;92549.34;5057937;28;20490;-86
2023/07/29 06:54:42;;;;;;;10.23;5.20;;;;;;;21.12;100.00;92538.16;5065167;28;20032;-87
2023/07/29 06:57:08;;;;;;;8.90;5.05;;;;;;;21.24;100.00;92547.91;5055363;28;20042;-82
2023/07/29 06:59:33;;;;;;;9.75;5.00;;;;;;;21.11;100.00;92544.59;5086638;28;20032;-86
2023/07/29 07:02:00;;;;;;;8.52;5.40;;;;;;;20.83;100.00;92556.22;5080323;28;20510;-87
2023/07/29 07:04:25;;;;;;;8.55;5.20;;;;;;;20.57;100.00;92549.56;5048743;28;20036;-87
2023/07/29 07:06:51;;;;;;;9.02;5.05;;;;;;;20.75;100.00;92554.50;5071620;28;20024;-85
2023/07/29 07:09:16;;;;;;;9.45;5.45;;;;;;;20.56;100.00;92558.66;5069227;28;20049;-84
2023/07/29 07:11:42;;;;;;;8.43;5.30;;;;;;;20.77;100.00;92561.00;5072650;28;20425;-85
2023/07/29 07:14:07;;;;;;;12.50;5.30;;;;;;;20.83;100.00;92561.53;5069331;28;20043;-85
2023/07/29 07:16:35;;;;;;;8.77;5.10;;;;;;;20.56;100.00;92558.66;5071045;28;20051;-85
2023/07/29 07:19:00;;;;;;;8.52;4.88;;;;;;;20.65;100.00;92558.47;5068153;28;20087;-85
2023/07/29 07:21:26;;;;;;;9.95;5.07;;;;;;;20.54;100.00;92558.22;5066956;28;20036;-82
2023/07/29 07:23:52;;;;;;;11.15;5.45;;;;;;;20.36;100.00;92565.78;5075928;28;20033;-84
2023/07/29 07:26:17;;;;;;;9.98;5.32;;;;;;;20.26;100.00;92554.91;5069900;28;20036;-86
2023/07/29 07:28:43;;;;;;;7.90;5.10;;;;;;;20.20;100.00;92554.41;5052707;28;20037;-86
2023/07/29 07:31:08;;;;;;;8.90;5.25;;;;;;;20.32;100.00;92559.59;5049445;28;20044;-84
2023/07/29 07:33:34;;;;;;;10.07;5.28;;;;;;;20.33;100.00;92552.41;5072254;28;20546;-84
2023/07/29 07:35:59;;;;;;;13.32;5.38;;;;;;;20.28;100.00;92547.34;5074229;28;20059;-85
2023/07/29 07:38:25;;;;;;;12.18;5.47;;;;;;;20.49;100.00;92553.16;5051914;28;20050;-85
2023/07/29 07:40:55;;;;;;;10.68;5.10;;;;;;;20.45;100.00;92547.00;5053671;28;20604;-84
2023/07/29 07:43:21;;;;;;;7.45;5.05;;;;;;;20.58;100.00;92548.47;5056294;28;20032;-84
2023/07/29 07:45:47;;;;;;;13.13;5.45;;;;;;;20.73;100.00;92546.09;5054258;28;20040;-85
2023/07/29 07:48:13;;;;;;;8.20;4.80;;;;;;;20.93;100.00;92545.00;5066305;28;20090;-86
2023/07/29 07:50:39;;;;;;;10.13;5.10;;;;;;;20.72;100.00;92523.28;5072429;28;20041;-86
2023/07/29 07:53:05;;;;;;;10.38;5.05;;;;;;;20.86;100.00;92523.56;5084432;28;20040;-85
2023/07/29 07:55:30;;;;;;;14.68;5.45;;;;;;;20.79;100.00;92520.78;5087600;28;20044;-85
2023/07/29 07:57:56;;;;;;;12.52;5.72;;;;;;;20.88;100.00;92521.34;5091042;28;20032;-85
2023/07/29 08:00:22;;;;;;;10.90;5.00;;;;;;;21.02;100.00;92522.75;5091072;28;20377;-85
2023/07/29 08:02:47;;;;;;;8.55;5.00;;;;;;;21.29;100.00;92524.41;5094850;28;20107;-84
2023/07/29 08:05:13;;;;;;;12.55;4.78;;;;;;;21.45;100.00;92526.25;5080827;28;20020;-84
2023/07/29 08:07:39;;;;;;;9.30;4.82;;;;;;;21.68;100.00;92521.72;5074783;28;20095;-86
2023/07/29 08:10:05;;;;;;;7.93;4.80;;;;;;;21.82;100.00;92524.66;5082920;28;20032;-86
2023/07/29 08:12:31;;;;;;;9.88;5.22;;;;;;;21.76;100.00;92517.31;5076319;28;20226;-87
2023/07/29 08:14:56;;;;;;;11.73;5.30;;;;;;;21.76;100.00;92519.97;5065522;28;20397;-85
2023/07/29 08:17:22;;;;;;;9.40;5.38;;;;;;;21.96;100.00;92518.00;5095821;28;20480;-87
2023/07/29 08:19:47;;;;;;;9.30;5.50;;;;;;;22.08;100.00;92520.47;5085084;28;20055;-87
2023/07/29 08:22:13;;;;;;;8.80;5.10;;;;;;;22.22;100.00;92528.75;5081400;28;20020;-86
2023/07/29 08:24:39;;;;;;;8.95;5.38;;;;;;;22.37;100.00;92531.63;5079597;28;20066;-87
2023/07/29 08:27:05;;;;;;;8.52;4.88;;;;;;;22.51;100.00;92531.81;5085892;28;20033;-86
2023/07/29 08:29:30;;;;;;;12.25;4.65;;;;;;;22.71;100.00;92524.47;5079311;28;20031;-85
2023/07/29 08:31:56;;;;;;;10.00;5.00;;;;;;;22.62;100.00;92530.06;5084286;28;20485;-85
2023/07/29 08:34:21;;;;;;;8.13;4.65;;;;;;;22.76;100.00;92539.41;5081874;28;20040;-85
2023/07/29 08:36:47;;;;;;;7.90;5.00;;;;;;;22.92;100.00;92534.69;5083137;28;20079;-86
2023/07/29 08:39:12;;;;;;;9.13;4.78;;;;;;;22.67;100.00;92534.31;5065857;28;20272;-84
2023/07/29 08:41:49;;;;;;;9.27;5.00;;;;;;;22.60;100.00;92527.00;5085833;28;20041;-85
2023/07/29 08:44:29;;;;;;;7.50;4.90;;;;;;;22.71;100.00;92523.72;5082014;28;20063;-83
2023/07/29 08:46:57;;;;;;;10.52;5.07;;;;;;;22.82;100.00;92530.72;5093134;28;20035;-85
2023/07/29 08:49:23;;;;;;;9.00;4.90;;;;;;;22.62;100.00;92524.75;5092641;28;20473;-85
2023/07/29 08:51:53;;;;;;;9.70;4.93;;;;;;;22.23;100.00;92524.94;5089441;28;20096;-83
2023/07/29 08:54:18;;;;;;;12.18;4.80;;;;;;;22.21;100.00;92526.41;5082662;28;20033;-85
2023/07/29 08:56:45;;;;;;;10.05;5.13;;;;;;;22.28;100.00;92521.19;5084354;28;20043;-85
2023/07/29 08:59:12;;;;;;;10.38;4.90;;;;;;;22.54;100.00;92517.00;5070282;28;20448;-84
2023/07/29 09:01:41;;;;;;;13.23;5.15;;;;;;;22.55;100.00;92526.53;5098788;28;20036;-85
2023/07/29 09:04:07;;;;;;;7.28;4.82;;;;;;;22.81;100.00;92531.09;5084980;28;20552;-84
2023/07/29 09:06:34;;;;;;;8.38;4.40;;;;;;;22.53;100.00;92524.22;5069012;28;20043;-82
2023/07/29 09:09:01;;;;;;;9.55;4.68;;;;;;;22.64;100.00;92525.16;5092341;28;20060;-85
2023/07/29 09:11:27;;;;;;;9.90;4.95;;;;;;;22.56;100.00;92520.88;5091457;28;20035;-84
2023/07/29 09:13:53;;;;;;;7.95;5.20;;;;;;;22.55;100.00;92527.31;5086775;28;20020;-84
2023/07/29 09:16:20;;;;;;;8.02;4.57;;;;;;;22.92;100.00;92524.00;5066371;28;20614;-84
2023/07/29 09:18:52;;;;;;;8.88;4.80;;;;;;;22.81;100.00;92531.88;5084714;28;20036;-85
2023/07/29 09:21:26;;;;;;;;;;;;;;;22.65;100.00;92536.59;5093306;28;20020;-85
2023/07/29 09:23:52;;;;;;;8.93;4.53;;;;;;;22.56;100.00;92533.41;5083709;28;19912;-85
2023/07/29 09:26:28;;;;;;;8.70;4.43;;;;;;;23.04;100.00;92539.81;5066482;28;20076;-85
2023/07/29 09:28:55;;;;;;;8.90;4.32;;;;;;;23.54;100.00;92546.88;5075211;28;20032;-83
2023/07/29 09:31:24;;;;;;;9.73;4.20;;;;;;;24.14;100.00;92538.69;5082785;28;20031;-83
2023/07/29 09:33:55;;;;;;;7.53;4.13;;;;;;;24.39;100.00;92548.81;5109948;28;20031;-83
2023/07/29 09:36:21;;;;;;;9.48;4.20;;;;;;;24.41;100.00;92554.53;5090450;28;20040;-83
2023/07/29 09:38:47;;;;;;;13.05;4.78;;;;;;;23.98;100.00;92544.28;5092544;28;20028;-83
2023/07/29 09:41:15;;;;;;;8.68;4.30;;;;;;;23.95;100.00;92536.22;5075136;28;20107;-84
2023/07/29 09:43:41;;;;;;;9.77;4.70;;;;;;;23.74;100.00;92542.13;5084437;28;20108;-83
2023/07/29 09:46:07;;;;;;;12.82;5.00;;;;;;;23.89;100.00;92536.56;5079996;28;20060;-83
2023/07/29 09:48:36;;;;;;;8.85;4.75;;;;;;;24.16;100.00;92532.97;5080868;28;20086;-83
2023/07/29 09:51:15;;;;;;;6.70;4.13;;;;;;;24.08;100.00;92542.84;5077374;28;20078;-84
2023/07/29 09:53:45;;;;;;;11.52;5.20;;;;;;;24.15;100.00;92542.13;5079436;28;20040;-83
2023/07/29 09:56:13;;;;;;;11.80;5.22;;;;;;;23.85;100.00;92537.69;5074674;28;20056;-84
2023/07/29 09:58:39;;;;;;;8.73;5.10;;;;;;;23.96;100.00;92537.75;5063910;28;20020;-84
2023/07/29 10:01:06;;;;;;;7.60;4.50;;;;;;;24.13;100.00;92542.50;5076079;28;20583;-82
2023/07/29 10:03:34;;;;;;;10.00;4.95;;;;;;;23.76;100.00;92540.63;5081589;28;20047;-85
2023/07/29 10:06:03;;;;;;;7.57;4.57;;;;;;;23.45;100.00;92528.47;5085561;28;20032;-81
2023/07/29 10:08:35;;;;;;;11.25;4.93;;;;;;;23.52;100.00;92533.88;5083817;28;20028;-81
2023/07/29 10:11:08;;;;;;;8.73;4.53;;;;;;;23.73;100.00;92527.19;5091377;28;20040;-82
2023/07/29 10:13:35;;;;;;;10.05;4.88;;;;;;;23.83;100.00;92511.31;5082040;28;20152;-81
2023/07/29 10:16:02;;;;;;;7.90;4.32;;;;;;;23.83;100.00;92513.97;5086483;28;20071;-81
2023/07/29 10:18:29;;;;;;;8.30;4.65;;;;;;;23.60;100.00;92516.78;5084292;28;20033;-82
2023/07/29 10:20:57;;;;;;;6.55;3.83;;;;;;;23.71;100.00;92514.22;5084829;28;20036;-82
2023/07/29 10:23:25;;;;;;;8.02;4.50;;;;;;;23.44;100.00;92510.88;5082342;28;20108;-81
2023/07/29 10:26:04;;;;;;;8.57;4.78;;;;;;;23.56;100.00;92515.22;5058241;28;20502;-84
2023/07/29 10:28:31;;;;;;;8.93;5.03;;;;;;;23.75;100.00;92511.59;5086358;28;20035;-82
2023/07/29 10:30:58;;;;;;;8.05;4.50;;;;;;;23.89;100.00;92509.84;5079879;28;20033;-81
2023/07/29 10:33:24;;;;;;;10.57;5.15;;;;;;;23.92;100.00;92518.25;5080021;28;20034;-82
2023/07/29 10:35:50;;;;;;;9.10;5.38;;;;;;;24.13;100.00;92518.44;5061405;28;20105;-82
2023/07/29 10:38:17;;;;;;;10.48;4.70;;;;;;;24.12;100.00;92521.50;5089651;28;20481;-83
2023/07/29 10:40:47;;;;;;;10.18;4.50;;;;;;;24.25;100.00;92525.38;5081122;28;20066;-83
2023/07/29 10:43:18;;;;;;;8.95;4.70;;;;;;;24.00;100.00;92520.63;5071547;28;20222;-81
2023/07/29 10:45:44;;;;;;;12.77;4.70;;;;;;;24.14;100.00;92528.00;5081420;28;20062;-84
2023/07/29 10:48:32;;;;;;;9.30;4.55;;;;;;;24.21;100.00;92512.00;5066322;28;20498;-80
2023/07/29 10:51:35;;;;;;;8.23;4.47;;;;;;;24.28;100.00;92522.75;5090367;28;20036;-82
2023/07/29 10:54:10;;;;;;;8.73;4.50;;;;;;;24.28;100.00;92520.06;5087354;28;20040;-82
2023/07/29 10:56:40;;;;;;;8.18;4.22;;;;;;;24.19;100.00;92516.94;5073059;28;20375;-81
2023/07/29 10:59:12;;;;;;;13.80;4.72;;;;;;;23.62;100.00;92522.53;5090333;28;20089;-82
2023/07/29 11:01:39;;;;;;;8.52;4.68;;;;;;;23.74;100.00;92528.75;5097213;28;20040;-82
2023/07/29 11:04:20;;;;;;;8.73;4.35;;;;;;;24.08;100.00;92516.09;5084473;28;20482;-80
2023/07/29 11:07:04;;;;;;;9.88;4.40;;;;;;;23.87;100.00;92520.13;5083486;28;20032;-81
2023/07/29 11:10:03;;;;;;;10.30;4.22;;;;;;;24.28;100.00;92514.72;5085725;28;20032;-80
2023/07/29 11:12:50;;;;;;;6.85;3.95;;;;;;;24.37;100.00;92510.97;5047513;28;20048;-85
2023/07/29 11:15:15;;;;;;;11.57;4.53;;;;;;;24.34;100.00;92517.06;5065780;28;20032;-82
2023/07/29 11:18:00;;;;;;;8.43;4.75;;;;;;;24.27;100.00;92517.75;5083776;28;20099;-82
2023/07/29 11:20:28;;;;;;;9.25;4.45;;;;;;;24.19;100.00;92514.28;5081038;28;20118;-82
2023/07/29 11:22:58;;;;;;;10.43;4.75;;;;;;;24.33;100.00;92515.53;5095005;28;20117;-82